createdAt,value
2023-05-05T00:00:23.350Z,99.90
2023-05-05T00:03:27.124Z,99.90
2023-05-05T00:06:29.498Z,99.90
2023-05-05T00:09:31.564Z,99.90
2023-05-05T00:12:33.821Z,99.90
2023-05-05T00:15:36.398Z,99.90
2023-05-05T00:18:38.839Z,99.90
2023-05-05T00:21:40.924Z,99.90
2023-05-05T00:24:42.990Z,99.90
2023-05-05T00:27:45.196Z,99.90
2023-05-05T00:30:47.354Z,99.90
2023-05-05T00:33:49.607Z,99.90
2023-05-05T00:36:51.642Z,99.90
2023-05-05T00:39:53.847Z,99.90
2023-05-05T00:42:56.052Z,99.90
2023-05-05T00:46:26.784Z,99.90
2023-05-05T00:49:29.430Z,99.90
2023-05-05T00:52:31.797Z,99.90
2023-05-05T00:55:35.068Z,99.90
2023-05-05T00:58:37.188Z,99.90
2023-05-05T01:01:39.626Z,99.90
2023-05-05T01:04:41.953Z,99.90
2023-05-05T01:07:43.966Z,99.90
2023-05-05T01:10:53.208Z,99.90
2023-05-05T01:14:16.385Z,99.90
2023-05-05T01:17:21.992Z,99.90
2023-05-05T01:20:46.113Z,99.90
2023-05-05T01:24:15.857Z,99.90
2023-05-05T01:27:48.806Z,99.90
2023-05-05T01:31:03.264Z,99.90
2023-05-05T01:34:09.876Z,99.90
2023-05-05T01:37:17.458Z,99.90
2023-05-05T01:40:25.041Z,99.90
2023-05-05T01:43:29.673Z,99.90
2023-05-05T01:46:35.200Z,99.90
2023-05-05T01:49:38.304Z,99.90
2023-05-05T01:52:42.568Z,99.90
2023-05-05T01:55:46.909Z,99.90
2023-05-05T01:58:49.946Z,99.90
2023-05-05T02:01:52.767Z,99.90
2023-05-05T02:04:56.450Z,99.90
2023-05-05T02:08:00.141Z,99.90
2023-05-05T02:11:02.838Z,99.90
2023-05-05T02:14:07.972Z,99.90
2023-05-05T02:17:11.621Z,99.90
2023-05-05T02:20:16.101Z,99.90
2023-05-05T02:23:18.248Z,99.90
2023-05-05T02:26:23.434Z,99.90
2023-05-05T02:29:39.346Z,99.90
2023-05-05T02:32:48.448Z,99.90
2023-05-05T02:35:53.693Z,99.90
2023-05-05T02:39:01.232Z,99.90
2023-05-05T02:42:05.446Z,99.90
2023-05-05T02:45:22.225Z,99.90
2023-05-05T02:48:24.436Z,99.90
2023-05-05T02:51:27.713Z,99.90
2023-05-05T02:54:32.714Z,99.90
2023-05-05T02:57:53.330Z,99.90
2023-05-05T03:01:26.823Z,99.90
2023-05-05T03:05:06.838Z,99.90
2023-05-05T03:08:17.642Z,99.90
2023-05-05T03:11:59.623Z,99.90
2023-05-05T03:15:02.718Z,99.90
2023-05-05T03:18:07.070Z,99.90
2023-05-05T03:21:09.968Z,99.90
2023-05-05T03:24:19.984Z,99.90
2023-05-05T03:27:22.220Z,99.90
2023-05-05T03:30:24.409Z,99.90
2023-05-05T03:33:27.225Z,99.90
2023-05-05T03:36:29.985Z,99.90
2023-05-05T03:39:32.035Z,99.90
2023-05-05T03:42:34.093Z,99.90
2023-05-05T03:45:55.557Z,99.90
2023-05-05T03:48:57.564Z,99.90
2023-05-05T03:51:59.590Z,99.90
2023-05-05T03:55:01.847Z,99.90
2023-05-05T03:58:03.902Z,99.90
2023-05-05T04:01:06.027Z,99.90
2023-05-05T04:04:09.564Z,99.90
2023-05-05T04:07:11.966Z,99.90
2023-05-05T04:10:14.003Z,99.90
2023-05-05T04:13:16.242Z,99.90
2023-05-05T04:16:18.427Z,99.90
2023-05-05T04:19:20.535Z,99.90
2023-05-05T04:22:23.043Z,99.90
2023-05-05T04:25:25.232Z,99.90
2023-05-05T04:28:27.313Z,99.90
2023-05-05T04:31:29.490Z,99.90
2023-05-05T04:34:31.644Z,99.90
2023-05-05T04:37:33.617Z,99.90
2023-05-05T04:40:40.321Z,99.90
2023-05-05T04:43:42.767Z,99.90
2023-05-05T04:46:44.895Z,99.90
2023-05-05T04:49:47.152Z,99.90
2023-05-05T04:52:51.341Z,99.90
2023-05-05T04:55:54.572Z,99.90
2023-05-05T04:58:56.611Z,99.90
2023-05-05T05:01:58.790Z,99.90
2023-05-05T05:05:00.843Z,99.90
2023-05-05T05:08:02.964Z,99.90
2023-05-05T05:11:05.181Z,99.90
2023-05-05T05:14:07.325Z,99.90
2023-05-05T05:17:09.382Z,99.90
2023-05-05T05:20:11.881Z,99.90
2023-05-05T05:23:14.012Z,99.90
2023-05-05T05:26:16.715Z,99.90
2023-05-05T05:29:20.421Z,99.90
2023-05-05T05:32:22.791Z,99.90
2023-05-05T05:35:24.947Z,99.90
2023-05-05T05:38:27.526Z,99.90
2023-05-05T05:41:29.551Z,99.90
2023-05-05T05:44:32.820Z,99.90
2023-05-05T05:47:34.964Z,99.90
2023-05-05T05:50:37.171Z,99.90
2023-05-05T05:53:39.778Z,99.90
2023-05-05T05:56:41.813Z,99.90
2023-05-05T05:59:43.836Z,99.90
2023-05-05T06:02:46.074Z,99.90
2023-05-05T06:05:48.286Z,99.90
2023-05-05T06:08:51.031Z,99.90
2023-05-05T06:11:53.263Z,99.90
2023-05-05T06:14:55.930Z,99.90
2023-05-05T06:17:58.200Z,99.90
2023-05-05T06:21:00.395Z,99.90
2023-05-05T06:24:02.502Z,99.90
2023-05-05T06:27:04.534Z,98.80
2023-05-05T06:30:09.726Z,99.20
2023-05-05T06:33:12.022Z,99.30
2023-05-05T06:36:14.078Z,94.50
2023-05-05T06:39:16.329Z,90.60
2023-05-05T06:42:18.545Z,87.40
2023-05-05T06:45:20.592Z,84.20
2023-05-05T06:48:22.713Z,77.80
2023-05-05T06:51:25.083Z,73.20
2023-05-05T06:54:27.326Z,70.00
2023-05-05T06:57:29.471Z,66.90
2023-05-05T07:00:31.782Z,63.20
2023-05-05T07:03:34.110Z,67.90
2023-05-05T07:06:36.306Z,65.10
2023-05-05T07:09:38.402Z,61.80
2023-05-05T07:12:40.440Z,64.20
2023-05-05T07:15:46.715Z,63.00
2023-05-05T07:18:48.998Z,59.50
2023-05-05T07:21:52.135Z,59.00
2023-05-05T07:24:54.453Z,65.70
2023-05-05T07:27:56.933Z,56.30
2023-05-05T07:30:59.342Z,55.20
2023-05-05T07:34:01.676Z,55.70
2023-05-05T07:37:05.257Z,60.00
2023-05-05T07:40:08.277Z,60.70
2023-05-05T07:43:10.697Z,59.60
2023-05-05T07:46:13.916Z,59.80
2023-05-05T07:49:16.308Z,58.10
2023-05-05T07:52:19.486Z,57.70
2023-05-05T07:55:23.596Z,55.40
2023-05-05T07:58:25.779Z,53.70
2023-05-05T08:01:27.940Z,54.20
2023-05-05T08:04:30.356Z,54.00
2023-05-05T08:07:32.601Z,57.90
2023-05-05T08:10:34.928Z,54.90
2023-05-05T08:13:38.442Z,53.40
2023-05-05T08:16:40.543Z,59.30
2023-05-05T08:19:42.708Z,53.30
2023-05-05T08:22:45.551Z,51.50
2023-05-05T08:25:47.660Z,54.20
2023-05-05T08:28:49.813Z,49.40
2023-05-05T08:31:52.199Z,52.20
2023-05-05T08:34:54.319Z,50.80
2023-05-05T08:37:58.244Z,49.50
2023-05-05T08:41:01.390Z,51.50
2023-05-05T08:44:03.503Z,49.70
2023-05-05T08:47:06.347Z,51.60
2023-05-05T08:50:11.043Z,45.80
2023-05-05T08:53:17.667Z,48.80
2023-05-05T08:56:22.028Z,48.50
2023-05-05T08:59:25.300Z,52.10
2023-05-05T09:02:29.971Z,46.30
2023-05-05T09:05:32.115Z,49.20
2023-05-05T09:08:34.238Z,49.80
2023-05-05T09:11:37.618Z,49.50
2023-05-05T09:18:02.562Z,50.40
2023-05-05T09:21:25.162Z,51.80
2023-05-05T09:24:27.366Z,50.70
2023-05-05T09:27:29.737Z,48.00
2023-05-05T09:30:31.966Z,48.50
2023-05-05T09:33:34.117Z,47.60
2023-05-05T09:36:50.258Z,44.50
2023-05-05T09:39:56.161Z,46.20
2023-05-05T09:43:02.942Z,46.70
2023-05-05T09:46:08.424Z,49.20
2023-05-05T09:49:25.324Z,47.70
2023-05-05T09:52:27.870Z,48.20
2023-05-05T09:55:33.117Z,47.70
2023-05-05T09:58:35.680Z,44.70
2023-05-05T10:01:38.803Z,50.20
2023-05-05T10:04:41.194Z,48.90
2023-05-05T10:07:45.128Z,46.00
2023-05-05T10:11:00.584Z,48.50
2023-05-05T10:14:06.563Z,47.30
2023-05-05T10:17:10.930Z,49.30
2023-05-05T10:20:14.386Z,47.20
2023-05-05T10:23:20.411Z,48.50
2023-05-05T10:26:23.409Z,51.90
2023-05-05T10:29:30.224Z,51.20
2023-05-05T10:35:49.913Z,48.80
2023-05-05T10:38:59.269Z,48.20
2023-05-05T10:42:15.121Z,47.40
2023-05-05T10:45:17.322Z,51.60
2023-05-05T10:48:43.424Z,50.20
2023-05-05T10:52:06.839Z,51.10
2023-05-05T10:55:18.188Z,48.80
2023-05-05T10:58:38.699Z,46.80
2023-05-05T11:01:50.830Z,49.20
2023-05-05T11:05:09.953Z,44.90
2023-05-05T11:08:31.538Z,47.30
2023-05-05T11:12:02.720Z,47.30
2023-05-05T11:15:26.863Z,51.30
2023-05-05T11:18:39.860Z,49.10
2023-05-05T11:22:01.230Z,47.00
2023-05-05T11:25:34.914Z,45.60
2023-05-05T11:28:56.446Z,48.80
2023-05-05T11:32:12.652Z,45.60
2023-05-05T11:35:15.617Z,42.90
2023-05-05T11:38:20.040Z,44.40
2023-05-05T11:41:33.680Z,42.80
2023-05-05T11:44:35.950Z,47.50
2023-05-05T11:47:38.243Z,43.20
2023-05-05T11:50:40.998Z,43.90
2023-05-05T11:53:48.431Z,44.20
2023-05-05T11:56:54.390Z,44.90
2023-05-05T12:00:01.300Z,41.60
2023-05-05T12:03:04.986Z,43.90
2023-05-05T12:06:08.477Z,47.20
2023-05-05T12:09:21.430Z,48.80
2023-05-05T12:12:38.102Z,46.70
2023-05-05T12:15:40.420Z,46.40
2023-05-05T12:18:42.879Z,46.50
2023-05-05T12:21:46.028Z,47.50
2023-05-05T12:25:05.352Z,42.10
2023-05-05T12:28:08.613Z,45.00
2023-05-05T12:31:11.740Z,43.80
2023-05-05T12:34:14.047Z,40.40
2023-05-05T12:37:19.176Z,43.40
2023-05-05T12:40:43.721Z,45.30
2023-05-05T12:43:47.533Z,40.10
2023-05-05T12:46:49.722Z,42.90
2023-05-05T12:49:52.647Z,43.50
2023-05-05T12:52:54.801Z,42.80
2023-05-05T12:55:56.817Z,41.90
2023-05-05T12:58:59.804Z,43.10
2023-05-05T13:02:06.243Z,37.30
2023-05-05T13:05:08.978Z,42.00
2023-05-05T13:08:11.387Z,41.90
2023-05-05T13:11:13.566Z,43.10
2023-05-05T13:14:15.814Z,44.90
2023-05-05T13:17:17.840Z,47.00
2023-05-05T13:20:20.062Z,45.70
2023-05-05T13:23:23.380Z,46.40
2023-05-05T13:26:27.077Z,43.80
2023-05-05T13:29:31.717Z,42.60
2023-05-05T13:32:33.922Z,47.10
2023-05-05T13:35:36.053Z,45.60
2023-05-05T13:38:38.595Z,44.90
2023-05-05T13:41:40.757Z,38.90
2023-05-05T13:44:42.908Z,39.70
2023-05-05T13:47:45.253Z,39.90
2023-05-05T13:50:47.392Z,42.10
2023-05-05T13:53:49.735Z,39.30
2023-05-05T13:56:51.884Z,41.80
2023-05-05T13:59:53.939Z,40.40
2023-05-05T14:02:55.981Z,38.40
2023-05-05T14:05:58.054Z,40.00
2023-05-05T14:09:00.210Z,45.30
2023-05-05T14:12:03.587Z,41.60
2023-05-05T14:15:06.805Z,38.40
2023-05-05T14:18:09.698Z,39.60
2023-05-05T14:21:12.236Z,42.10
2023-05-05T14:24:14.618Z,37.90
2023-05-05T14:27:16.649Z,37.60
2023-05-05T14:30:18.756Z,39.60
2023-05-05T14:33:22.129Z,37.70
2023-05-05T14:36:24.187Z,37.80
2023-05-05T14:39:26.333Z,39.10
2023-05-05T14:42:28.415Z,41.90
2023-05-05T14:45:31.286Z,41.50
2023-05-05T14:48:34.307Z,41.30
2023-05-05T14:51:36.444Z,38.80
2023-05-05T14:54:38.826Z,41.50
2023-05-05T14:57:41.176Z,39.30
2023-05-05T15:00:43.368Z,37.40
2023-05-05T15:03:45.828Z,36.90
2023-05-05T15:06:48.000Z,38.50
2023-05-05T15:09:50.286Z,39.00
2023-05-05T15:12:52.471Z,38.90
2023-05-05T15:15:54.635Z,35.60
2023-05-05T15:18:56.858Z,37.80
2023-05-05T15:21:58.992Z,36.80
2023-05-05T15:25:01.409Z,37.30
2023-05-05T15:28:03.673Z,40.00
2023-05-05T15:31:06.418Z,40.50
2023-05-05T15:34:08.982Z,39.40
2023-05-05T15:37:11.112Z,36.80
2023-05-05T15:40:13.636Z,37.70
2023-05-05T15:43:15.766Z,36.20
2023-05-05T15:46:17.866Z,39.00
2023-05-05T15:49:20.041Z,39.80
2023-05-05T15:52:22.318Z,37.50
2023-05-05T15:55:25.684Z,38.80
2023-05-05T15:58:27.819Z,39.80
2023-05-05T16:01:30.084Z,40.40
2023-05-05T16:04:32.163Z,41.80
2023-05-05T16:07:34.247Z,40.70
2023-05-05T16:10:37.470Z,41.60
2023-05-05T16:13:39.806Z,39.90
2023-05-05T16:16:42.012Z,42.90
2023-05-05T16:19:44.373Z,39.80
2023-05-05T16:22:46.833Z,43.60
2023-05-05T16:25:48.862Z,44.80
2023-05-05T16:28:51.427Z,44.10
2023-05-05T16:31:53.869Z,39.00
2023-05-05T16:34:55.921Z,41.00
2023-05-05T16:37:58.187Z,40.50
2023-05-05T16:41:00.364Z,41.30
2023-05-05T16:44:03.006Z,40.90
2023-05-05T16:47:05.062Z,43.00
2023-05-05T16:50:07.908Z,42.60
2023-05-05T16:53:10.577Z,44.70
2023-05-05T16:56:15.595Z,45.70
2023-05-05T16:59:19.260Z,45.40
2023-05-05T17:02:21.654Z,43.10
2023-05-05T17:05:23.810Z,50.50
2023-05-05T17:08:35.487Z,51.30
2023-05-05T17:11:37.556Z,54.20
2023-05-05T17:14:40.054Z,54.80
2023-05-05T17:17:43.155Z,57.50
2023-05-05T17:20:45.365Z,58.40
2023-05-05T17:23:47.465Z,61.10
2023-05-05T17:26:50.162Z,64.80
2023-05-05T17:29:52.251Z,71.00
2023-05-05T17:32:54.256Z,79.90
2023-05-05T17:35:56.376Z,85.60
2023-05-05T17:38:58.482Z,94.60
2023-05-05T17:42:01.352Z,91.80
2023-05-05T17:45:04.049Z,95.20
2023-05-05T17:48:06.504Z,95.00
2023-05-05T17:51:08.759Z,97.80
2023-05-05T17:54:10.954Z,99.90
2023-05-05T17:57:13.382Z,99.90
2023-05-05T18:00:15.953Z,99.90
2023-05-05T18:03:18.096Z,99.90
2023-05-05T18:06:20.460Z,99.90
2023-05-05T18:09:23.468Z,99.90
2023-05-05T18:12:26.032Z,99.90
2023-05-05T18:15:30.062Z,99.90
2023-05-05T18:18:32.321Z,99.90
2023-05-05T18:21:34.480Z,99.90
2023-05-05T18:24:36.507Z,99.90
2023-05-05T18:27:40.144Z,99.90
2023-05-05T18:30:42.403Z,99.90
2023-05-05T18:33:46.780Z,99.90
2023-05-05T18:36:51.500Z,99.90
2023-05-05T18:39:53.637Z,99.90
2023-05-05T18:42:55.904Z,99.90
2023-05-05T18:45:58.096Z,99.90
2023-05-05T18:49:00.697Z,99.90
2023-05-05T18:52:03.608Z,99.90
2023-05-05T18:55:05.937Z,99.90
2023-05-05T18:58:08.068Z,99.90
2023-05-05T19:01:10.220Z,99.90
2023-05-05T19:04:26.743Z,99.90
2023-05-05T19:07:35.814Z,99.90
2023-05-05T19:10:38.280Z,99.90
2023-05-05T19:13:41.062Z,99.90
2023-05-05T19:16:43.189Z,99.90
2023-05-05T19:19:45.414Z,99.90
2023-05-05T19:22:48.046Z,99.90
2023-05-05T19:25:53.624Z,99.90
2023-05-05T19:28:55.770Z,99.90
2023-05-05T19:31:58.259Z,99.90
2023-05-05T19:35:01.524Z,99.90
2023-05-05T19:38:03.550Z,99.90
2023-05-05T19:41:05.612Z,99.90
2023-05-05T19:44:07.736Z,99.90
2023-05-05T19:47:10.941Z,99.90
2023-05-05T19:50:15.400Z,99.90
2023-05-05T19:53:17.623Z,99.90
2023-05-05T19:56:19.831Z,99.90
2023-05-05T19:59:22.201Z,99.90
2023-05-05T20:02:27.199Z,99.90
2023-05-05T20:05:29.553Z,99.90
2023-05-05T20:08:31.838Z,99.90
2023-05-05T20:11:34.145Z,99.90
2023-05-05T20:14:36.640Z,99.90
2023-05-05T20:17:38.852Z,99.90
2023-05-05T20:20:41.023Z,99.90
2023-05-05T20:23:45.266Z,99.90
2023-05-05T20:26:47.340Z,99.90
2023-05-05T20:29:49.372Z,99.90
2023-05-05T20:32:52.079Z,99.90
2023-05-05T20:35:54.197Z,99.90
2023-05-05T20:38:56.363Z,99.90
2023-05-05T20:41:58.529Z,99.90
2023-05-05T20:45:01.960Z,99.90
2023-05-05T20:48:05.553Z,99.90
2023-05-05T20:51:07.737Z,99.90
2023-05-05T20:54:10.289Z,99.90
2023-05-05T20:57:12.462Z,99.90
2023-05-05T21:00:15.099Z,99.90
2023-05-05T21:03:17.335Z,99.90
2023-05-05T21:06:19.664Z,99.90
2023-05-05T21:09:23.851Z,99.90
2023-05-05T21:12:26.243Z,99.90
2023-05-05T21:15:28.532Z,99.90
2023-05-05T21:18:30.855Z,99.90
2023-05-05T21:21:33.141Z,99.90
2023-05-05T21:24:35.327Z,99.90
2023-05-05T21:27:37.422Z,99.90
2023-05-05T21:30:39.648Z,99.90
2023-05-05T21:33:41.941Z,99.90
2023-05-05T21:36:44.054Z,99.90
2023-05-05T21:39:46.238Z,99.90
2023-05-05T21:42:48.377Z,99.90
2023-05-05T21:46:02.299Z,99.90
2023-05-05T21:49:15.731Z,99.90
2023-05-05T21:52:17.965Z,99.90
2023-05-05T21:55:20.602Z,99.90
2023-05-05T21:58:25.007Z,99.90
2023-05-05T22:01:27.229Z,99.90
2023-05-05T22:04:29.361Z,99.90
2023-05-05T22:07:33.044Z,99.90
2023-05-05T22:10:35.382Z,99.90
2023-05-05T22:13:39.078Z,99.90
2023-05-05T22:16:41.229Z,99.90
2023-05-05T22:19:43.614Z,99.90
2023-05-05T22:22:46.158Z,99.90
2023-05-05T22:25:48.354Z,99.90
2023-05-05T22:28:50.625Z,99.90
2023-05-05T22:31:53.407Z,99.90
2023-05-05T22:34:55.520Z,99.90
2023-05-05T22:37:57.958Z,99.90
2023-05-05T22:41:00.036Z,99.90
2023-05-05T22:44:02.163Z,99.90
2023-05-05T22:47:04.313Z,99.90
2023-05-05T22:50:07.859Z,99.90
2023-05-05T22:53:10.037Z,99.90
2023-05-05T22:56:12.092Z,99.90
2023-05-05T22:59:14.255Z,99.90
2023-05-05T23:02:16.604Z,99.90
2023-05-05T23:05:18.726Z,99.90
2023-05-05T23:08:21.052Z,99.90
2023-05-05T23:11:23.074Z,99.90
2023-05-05T23:14:25.463Z,99.90
2023-05-05T23:17:27.636Z,99.90
2023-05-05T23:20:29.823Z,99.90
2023-05-05T23:23:31.902Z,99.90
2023-05-05T23:26:34.039Z,99.90
2023-05-05T23:29:36.101Z,99.90
2023-05-05T23:32:38.314Z,99.90
2023-05-05T23:35:43.482Z,99.90
2023-05-05T23:38:46.164Z,99.90
2023-05-05T23:41:48.176Z,99.90
2023-05-05T23:44:50.283Z,99.90
2023-05-05T23:47:52.561Z,99.90
2023-05-05T23:50:55.005Z,99.90
2023-05-05T23:53:57.584Z,99.90
2023-05-05T23:57:00.365Z,99.90
